FW2003 Weather Reports


Display with metric or nautical units.
time (UTC)temp
F
wind
direction
speed
MPH
gust
MPH
rain 1hr
in
rain 24hr
in
rain mn
in
humidity
%
barometer
mb
20200405095003 41 293 0.0 1.0 0.00 0.04 0.00 86 996.8
20200405094003 40 0 0.0 0.0 0.00 0.04 0.00 86 996.9
20200405093003 40 289 0.0 1.0 0.00 0.04 0.00 88 996.9
20200405092003 40 283 0.0 1.0 0.00 0.04 0.00 89 997.1
20200405091003 40 0 0.0 0.0 0.00 0.04 0.00 89 997.2
20200405090003 39 0 0.0 0.0 0.00 0.04 0.00 89 997.2
20200405085003 39 0 0.0 0.0 0.00 0.04 0.00 89 997.3
20200405084003 40 0 0.0 0.0 0.00 0.04 0.00 89 997.3
20200405083004 40 283 0.0 1.0 0.00 0.04 0.00 89 997.4
20200405082003 40 283 0.0 1.0 0.00 0.04 0.00 87 997.4
20200405081003 40 284 0.0 1.0 0.00 0.04 0.00 87 997.4
20200405080003 40 319 0.0 1.0 0.00 0.04 0.00 86 997.5
20200405075003 41 0 0.0 0.0 0.00 0.04 0.00 85 997.4
20200405074003 41 0 0.0 0.0 0.00 0.04 0.00 84 997.6
20200405073004 41 0 0.0 0.0 0.00 0.04 0.00 85 997.7
20200405072002 41 0 0.0 0.0 0.00 0.04 0.00 86 997.8
20200405071003 41 0 0.0 0.0 0.00 0.04 0.00 85 997.9
20200405070005 41 0 0.0 0.0 0.00 0.04 0.00 85 997.9
20200405065003 42 316 0.0 1.0 0.00 0.04 0.04 84 997.9
20200405064003 41 57 0.0 1.0 0.00 0.04 0.04 86 998.0
20200405063003 42 0 0.0 0.0 0.00 0.04 0.04 86 998.1
20200405062003 42 0 0.0 0.0 0.00 0.04 0.04 86 998.1
20200405061003 42 58 0.0 1.0 0.00 0.04 0.04 85 998.2
20200405060003 42 60 0.0 1.0 0.00 0.04 0.04 84 998.2
20200405055003 43 60 0.0 1.0 0.00 0.04 0.04 83 998.3
20200405054003 43 56 0.0 1.0 0.00 0.04 0.04 82 998.5
20200405053003 44 21 0.0 2.0 0.00 0.04 0.04 82 998.5
20200405052003 44 72 0.0 1.0 0.00 0.04 0.04 82 998.6
20200405051003 44 79 0.0 2.0 0.00 0.04 0.04 81 998.7
20200405050003 44 78 0.0 2.0 0.00 0.04 0.04 81 998.9
20200405045003 44 87 0.0 1.0 0.00 0.04 0.04 79 998.9
20200405044003 44 84 0.0 1.0 0.01 0.04 0.04 78 998.8
20200405043003 45 275 0.0 1.0 0.01 0.04 0.04 78 998.8
20200405042003 45 169 0.0 1.0 0.01 0.04 0.04 76 998.9
20200405041003 45 134 0.0 1.0 0.01 0.04 0.04 76 999.0
20200405040003 46 271 0.0 2.0 0.01 0.04 0.04 76 999.0
20200405035004 46 171 0.0 1.0 0.01 0.04 0.04 75 999.2
20200405034003 46 95 1.0 5.0 0.00 0.03 0.03 73 999.2
20200405033003 46 88 2.0 8.0 0.00 0.03 0.03 71 999.1
20200405032003 46 83 2.0 8.0 0.00 0.03 0.03 73 998.9
20200405031003 46 85 0.0 2.0 0.00 0.03 0.03 77 999.1
20200405030004 46 82 1.0 5.0 0.00 0.03 0.03 76 999.1
20200405025003 46 87 3.0 8.0 0.00 0.03 0.03 76 999.2
20200405024003 46 90 5.0 13.0 0.01 0.03 0.03 76 999.2
20200405023003 47 88 4.0 9.0 0.01 0.03 0.03 74 999.2
20200405022004 47 87 3.0 8.0 0.01 0.03 0.03 75 999.3
20200405021003 46 102 0.0 2.0 0.01 0.03 0.03 80 999.5
20200405020003 47 342 0.0 3.0 0.01 0.03 0.03 82 999.4
20200405015003 47 284 1.0 4.0 0.01 0.03 0.03 82 999.5
20200405014003 48 273 2.0 5.0 0.00 0.02 0.02 78 999.5
20200405013003 48 270 2.0 5.0 0.00 0.02 0.02 76 999.4
20200405012004 49 267 1.0 2.0 0.00 0.02 0.02 75 999.1
20200405011004 49 274 2.0 4.0 0.00 0.02 0.02 73 999.2
20200405010003 49 268 2.0 7.0 0.00 0.02 0.02 73 999.3
20200405005003 50 243 1.0 3.0 0.00 0.02 0.02 68 999.2
20200405004003 50 270 1.0 4.0 0.00 0.02 0.02 69 999.3
20200405003004 50 259 1.0 4.0 0.00 0.02 0.02 70 999.4
20200405002004 51 285 1.0 4.0 0.00 0.02 0.02 67 999.5
20200405001003 52 252 2.0 6.0 0.00 0.02 0.02 65 999.5
20200405000004 52 236 1.0 5.0 0.00 0.02 0.02 65 999.7
20200404235004 52 131 1.0 5.0 0.00 0.02 0.02 61 999.7
20200404234003 51 126 1.0 6.0 0.00 0.02 0.02 65 999.9
20200404233003 51 124 1.0 6.0 0.00 0.02 0.02 66 999.9
20200404232003 51 124 2.0 6.0 0.00 0.02 0.02 61 1000.0
20200404231003 51 100 3.0 10.0 0.00 0.02 0.02 62 1000.0
20200404230003 50 225 1.0 4.0 0.00 0.02 0.02 67 1000.2
20200404225003 49 94 4.0 10.0 0.00 0.02 0.02 69 1000.4
20200404224003 49 102 4.0 12.0 0.00 0.02 0.02 66 1000.4
20200404223003 50 125 2.0 8.0 0.00 0.02 0.02 66 1000.6
20200404222003 50 218 1.0 6.0 0.00 0.02 0.02 68 1000.5
20200404221003 50 111 2.0 5.0 0.00 0.02 0.02 67 1000.7
20200404220004 50 100 1.0 5.0 0.00 0.02 0.02 68 1000.8
20200404215003 49 247 1.0 3.0 0.00 0.02 0.02 72 1001.1
20200404214003 48 280 1.0 4.0 0.00 0.02 0.02 76 1001.0
20200404213003 47 253 1.0 4.0 0.00 0.02 0.02 76 1001.2
20200404212003 47 236 1.0 6.0 0.00 0.02 0.02 75 1001.5
20200404211003 47 242 1.0 4.0 0.00 0.02 0.02 77 1001.5
20200404210003 45 252 1.0 4.0 0.00 0.02 0.02 81 1001.5
20200404205003 44 257 1.0 4.0 0.00 0.02 0.02 84 1001.7
20200404204004 44 251 1.0 6.0 0.00 0.02 0.02 82 1001.9
20200404203003 44 247 1.0 2.0 0.00 0.02 0.02 82 1001.8
20200404202003 43 239 1.0 3.0 0.00 0.02 0.02 84 1002.0
20200404201003 43 248 1.0 4.0 0.00 0.02 0.02 86 1002.2
20200404200004 42 247 2.0 5.0 0.00 0.02 0.02 86 1002.5
20200404195003 42 239 1.0 4.0 0.00 0.02 0.02 86 1002.6
20200404194003 42 190 0.0 3.0 0.00 0.02 0.02 87 1002.6
20200404193004 41 185 0.0 1.0 0.00 0.02 0.02 87 1002.9
20200404192003 40 205 0.0 2.0 0.00 0.02 0.02 87 1002.9
20200404191003 40 247 1.0 3.0 0.00 0.02 0.02 87 1003.1
20200404190003 40 243 1.0 4.0 0.00 0.02 0.02 88 1003.3
20200404185003 40 256 1.0 3.0 0.00 0.02 0.02 87 1003.3
20200404184003 39 251 1.0 4.0 0.00 0.02 0.02 89 1003.5
20200404183003 39 252 1.0 4.0 0.00 0.02 0.02 88 1003.5
20200404182004 39 256 1.0 4.0 0.00 0.02 0.02 89 1003.6
20200404181003 39 255 2.0 6.0 0.00 0.02 0.02 89 1003.6
20200404180003 39 255 1.0 2.0 0.00 0.02 0.02 89 1003.6
20200404175004 38 89 0.0 2.0 0.00 0.02 0.02 90 1003.5
20200404174003 38 135 0.0 1.0 0.00 0.02 0.02 89 1003.6
20200404173003 37 131 0.0 1.0 0.00 0.02 0.02 89 1003.8
20200404172003 37 232 0.0 1.0 0.00 0.02 0.02 89 1003.9
20200404171003 37 263 0.0 2.0 0.00 0.02 0.02 89 1004.1
20200404170003 36 254 1.0 2.0 0.00 0.02 0.02 89 1004.4
20200404165003 36 247 0.0 3.0 0.00 0.02 0.02 89 1004.4
20200404164003 36 243 0.0 1.0 0.00 0.02 0.02 88 1004.5
20200404163003 36 218 0.0 1.0 0.00 0.02 0.02 88 1004.6
20200404162004 36 0 0.0 0.0 0.00 0.02 0.02 88 1004.7
20200404161005 36 0 0.0 0.0 0.01 0.02 0.02 88 1004.9
20200404160003 35 248 0.0 2.0 0.01 0.02 0.02 87 1004.9
20200404155003 36 247 0.0 2.0 0.01 0.02 0.02 89 1005.0
20200404154003 36 250 0.0 2.0 0.02 0.02 0.02 88 1005.1
20200404153003 36 110 0.0 1.0 0.02 0.02 0.02 87 1005.0
20200404152003 36 110 0.0 1.0 0.02 0.02 0.02 87 1005.2
20200404151003 36 0 0.0 0.0 0.01 0.01 0.01 87 1005.3
20200404150003 36 97 0.0 1.0 0.01 0.01 0.01 87 1005.4
20200404145003 36 103 0.0 1.0 0.01 0.01 0.01 86 1005.6
20200404144003 36 92 0.0 1.0 0.00 0.00 0.00 82 1005.6
20200404143003 36 92 0.0 1.0 0.00 0.00 0.00 84 1005.9
20200404142003 36 92 0.0 1.0 0.00 0.00 0.00 82 1005.9
20200404141003 36 87 0.0 2.0 0.00 0.00 0.00 81 1006.0
20200404140004 36 0 0.0 0.0 0.00 0.00 0.00 82 1006.0
20200404135004 36 94 0.0 1.0 0.00 0.00 0.00 82 1006.0
20200404134003 36 94 0.0 1.0 0.00 0.00 0.00 81 1006.1
20200404133003 36 91 0.0 2.0 0.00 0.00 0.00 81 1006.2
20200404132003 36 72 0.0 1.0 0.00 0.00 0.00 80 1006.3
20200404131003 36 0 0.0 0.0 0.00 0.00 0.00 81 1006.4
20200404130004 36 0 0.0 0.0 0.00 0.00 0.00 80 1006.4
20200404125003 36 0 0.0 0.0 0.00 0.00 0.00 81 1006.5
20200404124017 35 284 0.0 1.0 0.00 0.00 0.00 80 1006.6
20200404123003 35 0 0.0 0.0 0.00 0.00 0.00 80 1006.9
20200404122003 35 0 0.0 0.0 0.00 0.00 0.00 81 1007.0
20200404121003 35 0 0.0 0.0 0.00 0.00 0.00 81 1007.1
20200404120003 35 0 0.0 0.0 0.00 0.00 0.00 79 1007.3
20200404115003 36 0 0.0 0.0 0.00 0.00 0.00 79 1007.5
20200404114003 36 0 0.0 0.0 0.00 0.00 0.00 80 1007.6
20200404113003 36 289 0.0 1.0 0.00 0.00 0.00 79 1007.8
20200404112003 36 0 0.0 0.0 0.00 0.00 0.00 79 1008.0
20200404111003 36 0 0.0 0.0 0.00 0.00 0.00 78 1008.1
20200404110004 36 0 0.0 0.0 0.00 0.00 0.00 77 1008.3
20200404105003 36 0 0.0 0.0 0.00 0.00 0.00 78 1008.5
20200404104003 36 289 0.0 1.0 0.00 0.00 0.00 78 1008.6
20200404103003 36 0 0.0 0.0 0.00 0.00 0.00 78 1008.8
20200404102003 36 0 0.0 0.0 0.00 0.00 0.00 79 1009.0
20200404101004 36 0 0.0 0.0 0.00 0.00 0.00 79 1009.1
20200404100003 36 0 0.0 0.0 0.00 0.00 0.00 78 1009.3